Time,TemperatureF,DewpointF,PressureIn,WindDirection,WindDirectionDegrees,WindSpeedMPH,WindSpeedGustMPH,Humidity,HourlyPrecipIn,Conditions,Clouds,dailyrainin,SoftwareType,DateUTC
2013-01-25 00:17:00,11.6,-12.0,30.23,WNW,285,8.0,11.0,34,0.00,,,0.00,weatherlink.com 1.10,2013-01-25 05:17:00,
2013-01-25 00:32:00,11.3,-11.0,30.22,West,281,3.0,11.0,35,0.00,,,0.00,weatherlink.com 1.10,2013-01-25 05:32:00,
2013-01-25 00:47:00,11.1,-11.0,30.22,NW,325,1.0,10.0,36,0.00,,,0.00,weatherlink.com 1.10,2013-01-25 05:47:00,
2013-01-25 01:02:00,11.0,-11.0,30.24,SW,226,10.0,13.0,37,0.00,,,0.00,weatherlink.com 1.10,2013-01-25 06:02:00,
2013-01-25 01:17:00,10.9,-11.0,30.23,NW,323,4.0,12.0,37,0.00,,,0.00,weatherlink.com 1.10,2013-01-25 06:17:00,
2013-01-25 01:33:00,10.7,-10.0,30.24,West,277,2.0,10.0,38,0.00,,,0.00,weatherlink.com 1.10,2013-01-25 06:33:00,
2013-01-25 01:47:00,10.4,-10.0,30.24,WNW,293,2.0,9.0,39,0.00,,,0.00,weatherlink.com 1.10,2013-01-25 06:47:00,
2013-01-25 02:03:00,10.2,-10.0,30.25,WNW,283,4.0,8.0,40,0.00,,,0.00,weatherlink.com 1.10,2013-01-25 07:03:00,
2013-01-25 02:17:00,10.1,-9.0,30.25,WNW,295,2.0,9.0,41,0.00,,,0.00,weatherlink.com 1.10,2013-01-25 07:17:00,
2013-01-25 02:33:00,10.0,-9.0,30.25,WNW,295,3.0,11.0,42,0.00,,,0.00,weatherlink.com 1.10,2013-01-25 07:33:00,
2013-01-25 02:48:00,9.9,-9.0,30.25,West,278,5.0,7.0,42,0.00,,,0.00,weatherlink.com 1.10,2013-01-25 07:48:00,
2013-01-25 03:03:00,9.8,-9.0,30.25,WNW,301,5.0,9.0,42,0.00,,,0.00,weatherlink.com 1.10,2013-01-25 08:03:00,
2013-01-25 03:18:00,9.7,-9.0,30.26,WNW,291,2.0,7.0,43,0.00,,,0.00,weatherlink.com 1.10,2013-01-25 08:18:00,
2013-01-25 03:33:00,9.4,-9.0,30.26,West,267,1.0,6.0,43,0.00,,,0.00,weatherlink.com 1.10,2013-01-25 08:33:00,
2013-01-25 03:48:00,9.3,-9.0,30.26,West,270,5.0,7.0,43,0.00,,,0.00,weatherlink.com 1.10,2013-01-25 08:48:00,
2013-01-25 04:03:00,9.2,-9.0,30.26,NW,309,1.0,7.0,44,0.00,,,0.00,weatherlink.com 1.10,2013-01-25 09:03:00,
2013-01-25 04:18:00,9.0,-9.0,30.26,West,269,3.0,5.0,44,0.00,,,0.00,weatherlink.com 1.10,2013-01-25 09:18:00,
2013-01-25 04:34:00,9.0,-8.0,30.26,WSW,241,3.0,6.0,45,0.00,,,0.00,weatherlink.com 1.10,2013-01-25 09:34:00,
2013-01-25 04:48:00,9.0,-8.0,30.26,NW,314,2.0,7.0,45,0.00,,,0.00,weatherlink.com 1.10,2013-01-25 09:48:00,
2013-01-25 05:03:00,9.0,-8.0,30.27,WNW,285,2.0,6.0,45,0.00,,,0.00,weatherlink.com 1.10,2013-01-25 10:03:00,
2013-01-25 05:19:00,9.1,-9.0,30.27,West,259,3.0,8.0,44,0.00,,,0.00,weatherlink.com 1.10,2013-01-25 10:19:00,
2013-01-25 05:34:00,9.1,-9.0,30.28,WNW,289,3.0,6.0,44,0.00,,,0.00,weatherlink.com 1.10,2013-01-25 10:34:00,
2013-01-25 05:48:00,9.2,-9.0,30.28,WSW,256,3.0,9.0,44,0.00,,,0.00,weatherlink.com 1.10,2013-01-25 10:48:00,
2013-01-25 06:04:00,9.5,-9.0,30.28,WSW,242,2.0,11.0,43,0.00,,,0.00,weatherlink.com 1.10,2013-01-25 11:04:00,
2013-01-25 06:19:00,9.6,-9.0,30.27,NW,312,6.0,10.0,43,0.00,,,0.00,weatherlink.com 1.10,2013-01-25 11:19:00,
2013-01-25 06:34:00,9.5,-9.0,30.27,WNW,284,4.0,11.0,43,0.00,,,0.00,weatherlink.com 1.10,2013-01-25 11:34:00,
2013-01-25 06:49:00,9.2,-8.0,30.27,WNW,289,4.0,8.0,45,0.00,,,0.00,weatherlink.com 1.10,2013-01-25 11:49:00,
2013-01-25 07:04:00,9.1,-8.0,30.28,West,277,4.0,6.0,46,0.00,,,0.00,weatherlink.com 1.10,2013-01-25 12:04:00,
2013-01-25 07:19:00,9.0,-8.0,30.27,WNW,284,4.0,13.0,46,0.00,,,0.00,weatherlink.com 1.10,2013-01-25 12:19:00,
2013-01-25 07:34:00,9.2,-8.0,30.28,West,281,3.0,-999.0,46,-99.99,,,0.00,weatherlink.com 1.10,2013-01-25 12:34:00,
2013-01-25 07:49:00,9.7,-8.0,30.28,WNW,283,5.0,9.0,45,0.00,,,0.00,weatherlink.com 1.10,2013-01-25 12:49:00,
2013-01-25 08:04:00,10.1,-8.0,30.28,SSW,203,2.0,12.0,44,0.00,,,0.00,weatherlink.com 1.10,2013-01-25 13:04:00,
2013-01-25 08:19:00,10.7,-8.0,30.29,WNW,288,4.0,13.0,43,0.00,,,0.00,weatherlink.com 1.10,2013-01-25 13:19:00,
2013-01-25 08:34:00,11.5,-8.0,30.29,WSW,250,4.0,9.0,42,0.00,,,0.00,weatherlink.com 1.10,2013-01-25 13:34:00,
2013-01-25 08:49:00,12.6,-8.0,30.29,West,281,5.0,9.0,40,0.00,,,0.00,weatherlink.com 1.10,2013-01-25 13:49:00,
2013-01-25 09:04:00,13.3,-9.0,30.29,West,273,2.0,13.0,37,0.00,,,0.00,weatherlink.com 1.10,2013-01-25 14:04:00,
2013-01-25 09:19:00,14.3,-9.0,30.29,West,281,4.0,10.0,35,0.00,,,0.00,weatherlink.com 1.10,2013-01-25 14:19:00,
2013-01-25 09:35:00,15.1,-9.0,30.29,West,277,3.0,11.0,34,0.00,,,0.00,weatherlink.com 1.10,2013-01-25 14:35:00,
2013-01-25 09:50:00,15.6,-9.0,30.30,West,278,3.0,10.0,33,0.00,,,0.00,weatherlink.com 1.10,2013-01-25 14:50:00,
2013-01-25 10:05:00,16.1,-9.0,30.30,West,279,3.0,11.0,32,0.00,,,0.00,weatherlink.com 1.10,2013-01-25 15:05:00,
2013-01-25 10:20:00,16.6,-10.0,30.30,WSW,256,11.0,13.0,30,0.00,,,0.00,weatherlink.com 1.10,2013-01-25 15:20:00,
2013-01-25 10:35:00,17.1,-9.0,30.29,SW,233,8.0,12.0,30,0.00,,,0.00,weatherlink.com 1.10,2013-01-25 15:35:00,
2013-01-25 10:50:00,18.0,-9.0,30.29,West,275,2.0,10.0,30,0.00,,,0.00,weatherlink.com 1.10,2013-01-25 15:50:00,
2013-01-25 11:05:00,18.7,-9.0,30.27,West,273,7.0,17.0,29,0.00,,,0.00,weatherlink.com 1.10,2013-01-25 16:05:00,
2013-01-25 11:20:00,19.0,-9.0,30.27,East,95,2.0,11.0,29,0.00,,,0.00,weatherlink.com 1.10,2013-01-25 16:20:00,
2013-01-25 11:35:00,18.6,-10.0,30.26,West,262,8.0,14.0,28,0.00,,,0.00,weatherlink.com 1.10,2013-01-25 16:35:00,
2013-01-25 11:50:00,20.0,-8.0,30.25,West,271,9.0,10.0,29,0.00,,,0.00,weatherlink.com 1.10,2013-01-25 16:50:00,
2013-01-25 12:06:00,20.5,-9.0,30.25,West,264,5.0,8.0,27,0.00,,,0.00,weatherlink.com 1.10,2013-01-25 17:06:00,
2013-01-25 12:21:00,20.9,-8.0,30.24,West,266,6.0,9.0,27,0.00,,,0.00,weatherlink.com 1.10,2013-01-25 17:21:00,
2013-01-25 12:36:00,21.4,-9.0,30.23,WSW,255,5.0,11.0,26,0.00,,,0.00,weatherlink.com 1.10,2013-01-25 17:36:00,
2013-01-25 12:51:00,21.4,-9.0,30.22,WNW,284,2.0,9.0,25,0.00,,,0.00,weatherlink.com 1.10,2013-01-25 17:51:00,
2013-01-25 13:06:00,22.4,-9.0,30.21,WNW,288,3.0,13.0,25,0.00,,,0.00,weatherlink.com 1.10,2013-01-25 18:06:00,
2013-01-25 13:21:00,22.3,-10.0,30.20,WNW,301,4.0,11.0,24,0.00,,,0.00,weatherlink.com 1.10,2013-01-25 18:21:00,
2013-01-25 13:36:00,22.6,-8.0,30.20,SW,221,1.0,8.0,25,0.00,,,0.00,weatherlink.com 1.10,2013-01-25 18:36:00,
2013-01-25 13:51:00,22.8,-9.0,30.18,WNW,284,4.0,8.0,24,0.00,,,0.00,weatherlink.com 1.10,2013-01-25 18:51:00,
2013-01-25 14:06:00,22.8,-9.0,30.18,SSW,198,3.0,8.0,24,0.00,,,0.00,weatherlink.com 1.10,2013-01-25 19:06:00,
2013-01-25 14:21:00,23.2,-9.0,30.17,WNW,297,3.0,8.0,24,0.00,,,0.00,weatherlink.com 1.10,2013-01-25 19:21:00,
2013-01-25 14:36:00,24.0,-8.0,30.17,NW,323,3.0,8.0,24,0.00,,,0.00,weatherlink.com 1.10,2013-01-25 19:36:00,
2013-01-25 14:51:00,24.0,-9.0,30.16,WSW,240,2.0,6.0,23,0.00,,,0.00,weatherlink.com 1.10,2013-01-25 19:51:00,
2013-01-25 15:06:00,23.5,-9.0,30.16,West,262,4.0,7.0,24,0.00,,,0.00,weatherlink.com 1.10,2013-01-25 20:06:00,
2013-01-25 15:22:00,23.9,-8.0,30.15,NW,314,5.0,7.0,24,0.00,,,0.00,weatherlink.com 1.10,2013-01-25 20:22:00,
2013-01-25 15:36:00,23.7,-8.0,30.15,NW,304,4.0,8.0,24,0.00,,,0.00,weatherlink.com 1.10,2013-01-25 20:36:00,
2013-01-25 15:51:00,23.4,-9.0,30.15,SW,222,1.0,10.0,24,0.00,,,0.00,weatherlink.com 1.10,2013-01-25 20:51:00,
2013-01-25 16:07:00,23.2,-9.0,30.15,WNW,292,3.0,9.0,24,0.00,,,0.00,weatherlink.com 1.10,2013-01-25 21:07:00,
2013-01-25 16:22:00,23.1,-8.0,30.15,WNW,303,1.0,8.0,25,0.00,,,0.00,weatherlink.com 1.10,2013-01-25 21:22:00,
2013-01-25 16:37:00,22.9,-8.0,30.15,SW,231,3.0,8.0,25,0.00,,,0.00,weatherlink.com 1.10,2013-01-25 21:37:00,
2013-01-25 16:52:00,22.8,-7.0,30.16,West,274,3.0,7.0,26,0.00,,,0.00,weatherlink.com 1.10,2013-01-25 21:52:00,
2013-01-25 17:07:00,22.7,-7.0,30.15,SSW,211,1.0,5.0,27,0.00,,,0.00,weatherlink.com 1.10,2013-01-25 22:07:00,
2013-01-25 17:22:00,22.7,-7.0,30.16,West,274,4.0,5.0,27,0.00,,,0.00,weatherlink.com 1.10,2013-01-25 22:22:00,
2013-01-25 17:37:00,22.7,-5.0,30.15,WNW,292,3.0,8.0,29,0.00,,,0.00,weatherlink.com 1.10,2013-01-25 22:37:00,
2013-01-25 17:52:00,22.6,-5.0,30.14,WNW,285,3.0,5.0,29,0.00,,,0.00,weatherlink.com 1.10,2013-01-25 22:52:00,
2013-01-25 18:07:00,22.4,-5.0,30.14,SW,228,2.0,5.0,30,0.00,,,0.00,weatherlink.com 1.10,2013-01-25 23:07:00,
2013-01-25 18:22:00,22.3,-5.0,30.13,WNW,287,2.0,6.0,30,0.00,,,0.00,weatherlink.com 1.10,2013-01-25 23:22:00,
2013-01-25 18:37:00,22.2,-4.0,30.14,West,275,2.0,6.0,31,0.00,,,0.00,weatherlink.com 1.10,2013-01-25 23:37:00,
2013-01-25 18:52:00,22.1,-4.0,30.13,West,270,1.0,5.0,31,0.00,,,0.00,weatherlink.com 1.10,2013-01-25 23:52:00,
2013-01-25 19:08:00,22.0,-4.0,30.13,West,277,4.0,6.0,32,0.00,,,0.00,weatherlink.com 1.10,2013-01-26 00:08:00,
2013-01-25 19:22:00,21.9,-4.0,30.13,West,269,3.0,6.0,32,0.00,,,0.00,weatherlink.com 1.10,2013-01-26 00:22:00,
2013-01-25 19:37:00,21.9,-4.0,30.12,WNW,289,1.0,5.0,32,0.00,,,0.00,weatherlink.com 1.10,2013-01-26 00:37:00,
2013-01-25 19:53:00,21.6,-4.0,30.11,WNW,296,1.0,5.0,32,0.00,,,0.00,weatherlink.com 1.10,2013-01-26 00:53:00,
2013-01-25 20:08:00,21.5,-4.0,30.11,SSW,194,0.0,6.0,32,0.00,,,0.00,weatherlink.com 1.10,2013-01-26 01:08:00,
2013-01-25 20:23:00,21.5,-4.0,30.10,West,262,1.0,3.0,32,0.00,,,0.00,weatherlink.com 1.10,2013-01-26 01:23:00,
2013-01-25 20:38:00,21.3,-4.0,30.10,West,263,0.0,4.0,32,0.00,,,0.00,weatherlink.com 1.10,2013-01-26 01:38:00,
2013-01-25 20:53:00,21.4,-4.0,30.10,West,278,0.0,2.0,32,0.00,,,0.00,weatherlink.com 1.10,2013-01-26 01:53:00,
2013-01-25 21:08:00,21.5,-4.0,30.09,West,278,3.0,4.0,32,0.00,,,0.00,weatherlink.com 1.10,2013-01-26 02:08:00,
2013-01-25 21:23:00,21.4,-4.0,30.09,West,266,1.0,2.0,33,0.00,,,0.00,weatherlink.com 1.10,2013-01-26 02:23:00,
2013-01-25 21:38:00,21.5,-1.0,30.09,WNW,283,1.0,4.0,37,0.00,,,0.00,weatherlink.com 1.10,2013-01-26 02:38:00,
2013-01-25 21:54:00,20.0,7.0,30.09,WSW,250,3.0,7.0,58,0.00,,,0.00,weatherlink.com 1.10,2013-01-26 02:54:00,
2013-01-25 22:09:00,18.7,12.0,30.08,WNW,288,2.0,3.0,74,0.00,,,0.00,weatherlink.com 1.10,2013-01-26 03:09:00,
2013-01-25 22:24:00,18.0,13.0,30.08,NW,316,2.0,4.0,80,0.00,,,0.00,weatherlink.com 1.10,2013-01-26 03:24:00,
2013-01-25 22:38:00,17.5,13.0,30.08,West,269,0.0,2.0,82,0.00,,,0.00,weatherlink.com 1.10,2013-01-26 03:38:00,
2013-01-25 22:54:00,17.5,13.0,30.08,NE,34,0.0,1.0,81,0.00,,,0.00,weatherlink.com 1.10,2013-01-26 03:54:00,
2013-01-25 23:09:00,17.5,13.0,30.07,ENE,60,0.0,1.0,81,0.00,,,0.00,weatherlink.com 1.10,2013-01-26 04:09:00,
2013-01-25 23:24:00,17.4,13.0,30.07,North,351,1.0,2.0,81,0.00,,,0.00,weatherlink.com 1.10,2013-01-26 04:24:00,
2013-01-25 23:39:00,17.4,13.0,30.07,West,273,1.0,2.0,83,0.00,,,0.00,weatherlink.com 1.10,2013-01-26 04:39:00,
2013-01-25 23:54:00,17.3,13.0,30.07,NNW,336,0.0,2.0,84,0.00,,,0.00,weatherlink.com 1.10,2013-01-26 04:54:00,